createdAt,value
2019-02-09T00:00:29.061Z,4.30
2019-02-09T00:02:57.468Z,4.30
2019-02-09T00:05:25.902Z,4.40
2019-02-09T00:07:54.318Z,4.40
2019-02-09T00:10:22.728Z,4.40
2019-02-09T00:12:51.149Z,4.40
2019-02-09T00:15:19.635Z,4.40
2019-02-09T00:17:48.049Z,4.40
2019-02-09T00:20:18.605Z,4.40
2019-02-09T00:22:47.088Z,4.40
2019-02-09T00:25:20.812Z,4.40
2019-02-09T00:27:49.294Z,4.40
2019-02-09T00:30:20.046Z,4.30
2019-02-09T00:32:48.512Z,4.30
2019-02-09T00:35:18.390Z,4.40
2019-02-09T00:37:46.793Z,4.40
2019-02-09T00:40:18.302Z,4.40
2019-02-09T00:42:47.155Z,4.40
2019-02-09T00:45:20.798Z,4.30
2019-02-09T00:47:49.214Z,4.40
2019-02-09T00:50:18.877Z,4.40
2019-02-09T00:52:47.277Z,4.40
2019-02-09T00:55:26.903Z,4.30
2019-02-09T00:57:55.493Z,4.30
2019-02-09T01:00:25.562Z,4.30
2019-02-09T01:02:54.115Z,4.30
2019-02-09T01:05:25.452Z,4.30
2019-02-09T01:07:53.865Z,4.20
2019-02-09T01:10:23.402Z,4.20
2019-02-09T01:12:51.834Z,4.20
2019-02-09T01:15:20.247Z,4.20
2019-02-09T01:17:48.684Z,4.20
2019-02-09T01:20:22.467Z,4.20
2019-02-09T01:22:51.612Z,4.10
2019-02-09T01:25:20.106Z,3.90
2019-02-09T01:27:48.541Z,3.80
2019-02-09T01:30:22.359Z,3.60
2019-02-09T01:32:50.854Z,3.60
2019-02-09T01:35:19.418Z,3.60
2019-02-09T01:37:49.011Z,3.60
2019-02-09T01:40:22.802Z,3.60
2019-02-09T01:42:51.653Z,3.60
2019-02-09T01:45:28.821Z,3.50
2019-02-09T01:47:57.309Z,3.50
2019-02-09T01:50:27.270Z,3.50
2019-02-09T01:52:55.925Z,3.50
2019-02-09T01:55:25.750Z,3.40
2019-02-09T01:57:54.172Z,3.40
2019-02-09T02:00:30.891Z,3.40
2019-02-09T02:02:59.379Z,3.30
2019-02-09T02:05:27.858Z,3.30
2019-02-09T02:07:56.262Z,3.30
2019-02-09T02:10:32.945Z,3.30
2019-02-09T02:13:02.089Z,3.20
2019-02-09T02:15:31.331Z,3.20
2019-02-09T02:17:59.980Z,3.10
2019-02-09T02:20:30.540Z,3.10
2019-02-09T02:22:59.026Z,3.10
2019-02-09T02:25:27.801Z,3.00
2019-02-09T02:27:56.988Z,3.00
2019-02-09T02:30:36.084Z,3.00
2019-02-09T02:33:05.825Z,3.00
2019-02-09T02:35:34.487Z,3.00
2019-02-09T02:38:02.897Z,3.00
2019-02-09T02:40:31.310Z,3.00
2019-02-09T02:42:59.724Z,3.00
2019-02-09T02:45:28.373Z,2.90
2019-02-09T02:47:56.785Z,3.00
2019-02-09T02:50:25.481Z,3.00
2019-02-09T02:52:53.897Z,3.10
2019-02-09T02:55:27.672Z,3.20
2019-02-09T02:57:56.170Z,3.20
2019-02-09T03:00:32.430Z,3.30
2019-02-09T03:02:58.367Z,3.40
2019-02-09T03:05:26.869Z,3.30
2019-02-09T03:07:55.585Z,3.40
2019-02-09T03:10:24.089Z,3.30
2019-02-09T03:12:52.566Z,3.20
2019-02-09T03:15:23.499Z,3.20
2019-02-09T03:17:51.906Z,3.10
2019-02-09T03:20:21.476Z,3.20
2019-02-09T03:22:49.945Z,3.20
2019-02-09T03:25:26.840Z,3.10
2019-02-09T03:27:55.251Z,3.10
2019-02-09T03:30:24.622Z,3.20
2019-02-09T03:32:53.163Z,3.20
2019-02-09T03:35:21.809Z,3.10
2019-02-09T03:37:50.237Z,3.10
2019-02-09T03:40:21.058Z,3.10
2019-02-09T03:42:49.585Z,3.20
2019-02-09T03:45:22.924Z,3.10
2019-02-09T03:47:51.605Z,3.10
2019-02-09T03:50:23.221Z,3.20
2019-02-09T03:52:51.662Z,3.10
2019-02-09T03:55:20.069Z,3.20
2019-02-09T03:57:48.479Z,3.30
2019-02-09T04:02:56.344Z,3.40
2019-02-09T04:05:24.836Z,3.40
2019-02-09T04:07:53.687Z,3.50
2019-02-09T04:10:24.514Z,3.60
2019-02-09T04:12:52.920Z,3.60
2019-02-09T04:15:23.478Z,3.70
2019-02-09T04:17:52.032Z,3.70
2019-02-09T04:20:22.751Z,3.70
2019-02-09T04:22:51.237Z,3.80
2019-02-09T04:25:21.002Z,3.70
2019-02-09T04:27:49.411Z,3.70
2019-02-09T04:30:20.348Z,3.70
2019-02-09T04:32:48.827Z,3.80
2019-02-09T04:35:17.227Z,3.80
2019-02-09T04:37:45.713Z,3.80
2019-02-09T04:40:32.007Z,3.90
2019-02-09T04:43:00.593Z,3.80
2019-02-09T04:45:28.991Z,3.80
2019-02-09T04:47:57.749Z,3.70
2019-02-09T04:50:26.170Z,3.70
2019-02-09T04:52:54.577Z,3.80
2019-02-09T04:55:24.775Z,3.80
2019-02-09T04:57:53.253Z,3.80
2019-02-09T05:00:24.742Z,3.70
2019-02-09T05:02:53.346Z,3.80
2019-02-09T05:05:21.821Z,3.90
2019-02-09T05:07:50.247Z,3.90
2019-02-09T05:10:20.697Z,3.90
2019-02-09T05:12:49.121Z,3.90
2019-02-09T05:15:19.193Z,3.80
2019-02-09T05:17:47.686Z,3.70
2019-02-09T05:20:20.818Z,3.60
2019-02-09T05:22:49.396Z,3.60
2019-02-09T05:25:18.075Z,3.60
2019-02-09T05:27:46.687Z,3.60
2019-02-09T05:30:17.731Z,3.50
2019-02-09T05:32:46.124Z,3.50
2019-02-09T05:35:14.809Z,3.50
2019-02-09T05:37:43.222Z,3.50
2019-02-09T05:40:14.439Z,3.40
2019-02-09T05:42:42.854Z,3.40
2019-02-09T05:45:22.306Z,3.50
2019-02-09T05:47:50.716Z,3.50
2019-02-09T05:50:20.192Z,3.50
2019-02-09T05:52:48.621Z,3.50
2019-02-09T05:55:17.969Z,3.50
2019-02-09T05:57:46.536Z,3.60
2019-02-09T06:00:22.291Z,3.50
2019-02-09T06:02:50.703Z,3.50
2019-02-09T06:05:19.399Z,3.50
2019-02-09T06:07:47.829Z,3.50
2019-02-09T06:10:20.390Z,3.60
2019-02-09T06:12:48.814Z,3.60
2019-02-09T06:15:20.239Z,3.60
2019-02-09T06:17:48.667Z,3.70
2019-02-09T06:20:19.984Z,3.60
2019-02-09T06:22:48.430Z,3.60
2019-02-09T06:25:16.851Z,3.50
2019-02-09T06:27:45.312Z,3.50
2019-02-09T06:30:19.342Z,3.40
2019-02-09T06:32:47.759Z,3.80
2019-02-09T06:35:16.330Z,3.90
2019-02-09T06:37:44.737Z,3.80
2019-02-09T06:40:18.573Z,3.40
2019-02-09T06:42:46.984Z,3.20
2019-02-09T06:45:17.826Z,3.10
2019-02-09T06:47:46.234Z,3.10
2019-02-09T06:50:19.970Z,3.10
2019-02-09T06:52:48.381Z,3.00
2019-02-09T06:55:16.994Z,3.00
2019-02-09T06:57:45.437Z,3.10
2019-02-09T07:00:16.409Z,3.10
2019-02-09T07:02:44.913Z,3.10
2019-02-09T07:05:16.329Z,3.10
2019-02-09T07:07:44.846Z,3.10
2019-02-09T07:10:19.257Z,3.10
2019-02-09T07:12:47.737Z,3.20
2019-02-09T07:15:22.211Z,3.20
2019-02-09T07:17:50.626Z,3.10
2019-02-09T07:20:19.126Z,3.20
2019-02-09T07:22:47.517Z,3.20
2019-02-09T07:25:16.477Z,3.20
2019-02-09T07:27:45.017Z,3.20
2019-02-09T07:30:28.775Z,3.20
2019-02-09T07:32:58.119Z,3.20
2019-02-09T07:35:26.614Z,3.10
2019-02-09T07:37:56.016Z,3.10
2019-02-09T07:40:25.353Z,3.10
2019-02-09T07:42:54.007Z,3.20
2019-02-09T07:45:30.565Z,3.20
2019-02-09T07:47:59.048Z,3.20
2019-02-09T07:50:28.311Z,3.30
2019-02-09T07:52:56.720Z,3.30
2019-02-09T07:55:25.300Z,3.30
2019-02-09T07:57:53.711Z,3.30
2019-02-09T08:00:25.202Z,3.20
2019-02-09T08:02:53.760Z,3.30
2019-02-09T08:05:23.112Z,3.30
2019-02-09T08:07:51.528Z,3.40
2019-02-09T08:10:22.538Z,3.40
2019-02-09T08:12:50.962Z,3.40
2019-02-09T08:15:21.419Z,3.50
2019-02-09T08:17:49.917Z,3.50
2019-02-09T08:20:23.712Z,3.50
2019-02-09T08:22:52.669Z,3.50
2019-02-09T08:25:23.130Z,3.50
2019-02-09T08:27:51.698Z,3.50
2019-02-09T08:30:25.804Z,3.50
2019-02-09T08:32:54.593Z,3.50
2019-02-09T08:35:23.068Z,3.50
2019-02-09T08:37:51.669Z,3.50
2019-02-09T08:40:20.087Z,3.50
2019-02-09T08:42:49.634Z,3.50
2019-02-09T08:45:23.020Z,3.50
2019-02-09T08:47:51.442Z,3.60
2019-02-09T08:50:30.880Z,3.60
2019-02-09T08:52:59.313Z,3.60
2019-02-09T08:55:27.798Z,3.70
2019-02-09T08:57:56.213Z,3.70
2019-02-09T09:00:27.470Z,3.70
2019-02-09T09:02:56.023Z,3.70
2019-02-09T09:05:24.505Z,3.80
2019-02-09T09:07:52.913Z,3.90
2019-02-09T09:10:23.869Z,4.00
2019-02-09T09:12:52.451Z,3.90
2019-02-09T09:15:26.490Z,3.90
2019-02-09T09:17:54.915Z,3.80
2019-02-09T09:20:28.444Z,3.80
2019-02-09T09:22:56.852Z,3.80
2019-02-09T09:25:25.550Z,3.70
2019-02-09T09:27:54.031Z,3.60
2019-02-09T09:30:28.089Z,3.50
2019-02-09T09:32:56.573Z,3.60
2019-02-09T09:35:25.073Z,3.60
2019-02-09T09:37:54.123Z,3.70
2019-02-09T09:40:34.216Z,3.70
2019-02-09T09:43:02.690Z,3.70
2019-02-09T09:45:33.364Z,3.70
2019-02-09T09:48:01.940Z,3.70
2019-02-09T09:50:30.590Z,3.60
2019-02-09T09:52:59.000Z,3.60
2019-02-09T09:55:27.427Z,3.50
2019-02-09T09:57:55.922Z,3.50
2019-02-09T10:00:28.358Z,3.60
2019-02-09T10:02:56.781Z,3.70
2019-02-09T10:05:25.195Z,3.80
2019-02-09T10:07:53.642Z,4.00
2019-02-09T10:10:22.413Z,4.10
2019-02-09T10:12:50.831Z,4.20
2019-02-09T10:15:22.326Z,4.20
2019-02-09T10:17:50.982Z,4.30
2019-02-09T10:20:25.086Z,4.40
2019-02-09T10:22:53.631Z,4.50
2019-02-09T10:25:22.327Z,4.50
2019-02-09T10:27:52.669Z,4.50
2019-02-09T10:30:24.310Z,4.50
2019-02-09T10:32:52.854Z,4.60
2019-02-09T10:35:22.990Z,4.70
2019-02-09T10:37:51.581Z,4.80
2019-02-09T10:40:22.053Z,4.80
2019-02-09T10:42:50.700Z,4.70
2019-02-09T10:45:26.884Z,4.60
2019-02-09T10:47:55.371Z,4.60
2019-02-09T10:50:32.233Z,4.70
2019-02-09T10:53:00.754Z,4.80
2019-02-09T10:55:29.165Z,4.80
2019-02-09T10:57:57.584Z,4.80
2019-02-09T11:00:49.397Z,4.80
2019-02-09T11:03:17.895Z,4.70
2019-02-09T11:05:46.377Z,4.70
2019-02-09T11:08:14.801Z,4.70
2019-02-09T11:10:43.357Z,4.70
2019-02-09T11:13:11.825Z,4.80
2019-02-09T11:15:40.345Z,4.80
2019-02-09T11:18:08.835Z,4.90
2019-02-09T11:20:37.290Z,4.90
2019-02-09T11:23:06.133Z,4.80
2019-02-09T11:25:34.712Z,4.80
2019-02-09T11:28:03.126Z,4.80
2019-02-09T11:30:31.697Z,4.80
2019-02-09T11:33:02.360Z,5.00
2019-02-09T11:35:30.279Z,5.20
2019-02-09T11:37:58.750Z,5.30
2019-02-09T11:40:31.336Z,5.40
2019-02-09T11:43:00.595Z,5.30
2019-02-09T11:45:34.433Z,5.10
2019-02-09T11:48:04.795Z,5.10
2019-02-09T11:50:33.446Z,5.20
2019-02-09T11:53:02.099Z,5.20
2019-02-09T11:55:30.642Z,5.20
2019-02-09T11:57:59.057Z,5.10
2019-02-09T12:00:32.869Z,5.00
2019-02-09T12:03:05.573Z,4.80
2019-02-09T12:05:31.495Z,4.70
2019-02-09T12:07:59.906Z,4.60
2019-02-09T12:10:29.485Z,4.50
2019-02-09T12:12:57.961Z,4.60
2019-02-09T12:15:31.906Z,4.70
2019-02-09T12:18:00.468Z,5.00
2019-02-09T12:20:29.029Z,5.30
2019-02-09T12:22:57.715Z,5.60
2019-02-09T12:25:34.219Z,5.80
2019-02-09T12:28:02.693Z,5.70
2019-02-09T12:30:33.830Z,5.60
2019-02-09T12:33:02.245Z,5.50
2019-02-09T12:35:30.827Z,5.50
2019-02-09T12:37:59.246Z,5.40
2019-02-09T12:40:29.314Z,5.30
2019-02-09T12:42:57.721Z,5.20
2019-02-09T12:45:28.109Z,5.20
2019-02-09T12:47:56.534Z,5.20
2019-02-09T12:50:26.488Z,5.20
2019-02-09T12:52:54.991Z,5.30
2019-02-09T12:55:23.736Z,5.30
2019-02-09T12:57:52.157Z,5.30
2019-02-09T13:00:25.507Z,5.20
2019-02-09T13:02:54.682Z,5.30
2019-02-09T13:05:23.095Z,5.30
2019-02-09T13:07:51.517Z,5.30
2019-02-09T13:10:20.193Z,5.30
2019-02-09T13:12:48.612Z,5.30
2019-02-09T13:15:31.166Z,5.40
2019-02-09T13:17:59.583Z,5.40
2019-02-09T13:20:31.714Z,5.50
2019-02-09T13:23:00.562Z,5.50
2019-02-09T13:25:29.002Z,5.50
2019-02-09T13:27:57.399Z,5.40
2019-02-09T13:30:29.234Z,5.40
2019-02-09T13:32:57.650Z,5.40
2019-02-09T13:35:26.078Z,5.40
2019-02-09T13:37:54.493Z,5.40
2019-02-09T13:40:24.650Z,5.40
2019-02-09T13:42:53.065Z,5.50
2019-02-09T13:45:23.689Z,5.60
2019-02-09T13:47:52.177Z,5.50
2019-02-09T13:54:01.090Z,5.50
2019-02-09T13:56:29.608Z,5.60
2019-02-09T13:58:58.027Z,5.60
2019-02-09T14:01:26.452Z,5.60
2019-02-09T14:03:55.850Z,5.60
2019-02-09T14:06:24.375Z,5.40
2019-02-09T14:08:53.207Z,5.20
2019-02-09T14:11:21.715Z,5.00
2019-02-09T14:13:50.350Z,4.70
2019-02-09T14:16:18.835Z,4.60
2019-02-09T14:18:48.402Z,4.50
2019-02-09T14:21:17.225Z,4.50
2019-02-09T14:23:45.649Z,4.40
2019-02-09T14:26:14.196Z,4.50
2019-02-09T14:28:42.606Z,4.50
2019-02-09T14:31:11.131Z,4.50
2019-02-09T14:33:39.586Z,4.50
2019-02-09T14:36:08.045Z,4.60
2019-02-09T14:38:36.492Z,4.70
2019-02-09T14:41:05.032Z,4.80
2019-02-09T14:43:33.506Z,4.90
2019-02-09T14:46:01.977Z,5.20
2019-02-09T14:48:30.399Z,5.70
2019-02-09T14:50:58.930Z,6.00
2019-02-09T14:53:27.384Z,6.10
2019-02-09T14:55:55.849Z,6.10
2019-02-09T14:58:24.286Z,5.90
2019-02-09T15:00:54.597Z,5.80
2019-02-09T15:03:28.147Z,5.60
2019-02-09T15:05:53.162Z,5.50
2019-02-09T15:08:21.589Z,5.40
2019-02-09T15:10:50.031Z,5.40
2019-02-09T15:13:18.441Z,5.30
2019-02-09T15:16:05.028Z,5.30
2019-02-09T15:18:33.535Z,5.30
2019-02-09T15:21:14.253Z,5.30
2019-02-09T15:23:42.719Z,5.20
2019-02-09T15:26:12.638Z,5.20
2019-02-09T15:28:41.145Z,5.20
2019-02-09T15:31:09.572Z,5.10
2019-02-09T15:33:38.010Z,5.10
2019-02-09T15:36:06.474Z,5.10
2019-02-09T15:38:34.945Z,5.10
2019-02-09T15:41:03.452Z,5.10
2019-02-09T15:43:31.851Z,5.10
2019-02-09T15:46:00.298Z,5.10
2019-02-09T15:48:28.738Z,5.00
2019-02-09T15:50:57.299Z,5.00
2019-02-09T15:53:26.529Z,5.10
2019-02-09T15:55:55.143Z,5.00
2019-02-09T15:58:23.676Z,5.10
2019-02-09T16:00:52.221Z,5.00
2019-02-09T16:03:20.820Z,5.10
2019-02-09T16:05:49.395Z,5.10
2019-02-09T16:08:17.870Z,5.10
2019-02-09T16:10:46.456Z,5.10
2019-02-09T16:13:14.986Z,5.10
2019-02-09T16:15:43.438Z,5.00
2019-02-09T16:18:11.926Z,5.00
2019-02-09T16:20:40.455Z,5.00
2019-02-09T16:23:08.926Z,5.00
2019-02-09T16:25:37.359Z,4.90
2019-02-09T16:28:05.919Z,4.70
2019-02-09T16:30:34.430Z,4.80
2019-02-09T16:33:02.980Z,4.80
2019-02-09T16:35:32.504Z,4.60
2019-02-09T16:38:01.024Z,4.50
2019-02-09T16:40:31.130Z,4.30
2019-02-09T16:42:59.672Z,4.00
2019-02-09T16:45:33.868Z,3.60
2019-02-09T16:48:02.550Z,3.40
2019-02-09T16:50:31.049Z,3.40
2019-02-09T16:52:59.514Z,3.30
2019-02-09T16:55:28.006Z,3.40
2019-02-09T16:57:56.613Z,3.50
2019-02-09T17:00:27.665Z,3.50
2019-02-09T17:02:56.101Z,3.50
2019-02-09T17:05:24.834Z,3.60
2019-02-09T17:07:53.392Z,3.70
2019-02-09T17:10:21.980Z,3.80
2019-02-09T17:12:51.462Z,3.80
2019-02-09T17:15:25.292Z,3.80
2019-02-09T17:17:53.738Z,3.90
2019-02-09T17:20:22.492Z,4.00
2019-02-09T17:22:51.806Z,4.00
2019-02-09T17:25:24.770Z,3.90
2019-02-09T17:27:53.320Z,3.90
2019-02-09T17:30:30.078Z,3.90
2019-02-09T17:32:58.605Z,3.90
2019-02-09T17:35:27.161Z,4.00
2019-02-09T17:37:55.662Z,4.10
2019-02-09T17:40:38.160Z,4.10
2019-02-09T17:43:07.586Z,4.20
2019-02-09T17:45:44.993Z,4.10
2019-02-09T17:48:13.468Z,4.00
2019-02-09T17:50:42.899Z,3.90
2019-02-09T17:53:11.511Z,3.90
2019-02-09T17:55:40.017Z,3.90
2019-02-09T17:58:09.453Z,3.90
2019-02-09T18:00:45.149Z,4.00
2019-02-09T18:03:13.617Z,4.10
2019-02-09T18:05:42.016Z,4.10
2019-02-09T18:08:10.497Z,4.10
2019-02-09T18:10:39.494Z,4.10
2019-02-09T18:13:07.940Z,4.10
2019-02-09T18:15:36.461Z,4.00
2019-02-09T18:18:05.648Z,4.00
2019-02-09T18:20:34.056Z,3.80
2019-02-09T18:23:02.542Z,3.80
2019-02-09T18:25:31.108Z,3.80
2019-02-09T18:27:59.568Z,3.80
2019-02-09T18:30:29.629Z,3.70
2019-02-09T18:32:58.117Z,3.80
2019-02-09T18:35:26.678Z,3.80
2019-02-09T18:37:55.108Z,3.90
2019-02-09T18:40:27.515Z,3.90
2019-02-09T18:42:56.102Z,4.00
2019-02-09T18:45:30.309Z,4.00
2019-02-09T18:47:58.796Z,4.00
2019-02-09T18:50:32.043Z,4.00
2019-02-09T18:53:02.101Z,4.10
2019-02-09T18:55:31.170Z,4.20
2019-02-09T18:57:59.919Z,4.20
2019-02-09T19:00:36.553Z,4.10
2019-02-09T19:03:06.755Z,4.10
2019-02-09T19:05:35.371Z,4.00
2019-02-09T19:08:05.217Z,4.00
2019-02-09T19:10:33.683Z,4.00
2019-02-09T19:13:02.217Z,4.00
2019-02-09T19:15:30.797Z,3.90
2019-02-09T19:17:59.371Z,4.00
2019-02-09T19:20:39.523Z,4.00
2019-02-09T19:23:07.971Z,4.00
2019-02-09T19:25:36.623Z,4.00
2019-02-09T19:28:05.734Z,4.10
2019-02-09T19:30:34.446Z,4.10
2019-02-09T19:33:02.987Z,4.10
2019-02-09T19:35:31.453Z,4.10
2019-02-09T19:37:59.924Z,4.20
2019-02-09T19:40:28.828Z,4.20
2019-02-09T19:42:57.318Z,4.20
2019-02-09T19:45:33.301Z,4.20
2019-02-09T19:48:01.801Z,4.30
2019-02-09T19:50:30.366Z,4.20
2019-02-09T19:52:58.898Z,4.20
2019-02-09T19:55:31.583Z,4.10
2019-02-09T19:58:00.022Z,4.10
2019-02-09T20:00:30.495Z,4.10
2019-02-09T20:02:58.965Z,4.00
2019-02-09T20:05:27.387Z,3.90
2019-02-09T20:07:55.961Z,3.90
2019-02-09T20:10:38.410Z,3.90
2019-02-09T20:13:07.770Z,4.00
2019-02-09T20:15:36.249Z,4.00
2019-02-09T20:18:06.141Z,4.00
2019-02-09T20:20:34.728Z,4.00
2019-02-09T20:23:03.166Z,4.00
2019-02-09T20:25:31.680Z,3.90
2019-02-09T20:28:00.125Z,3.90
2019-02-09T20:30:37.379Z,3.80
2019-02-09T20:33:06.162Z,3.80
2019-02-09T20:35:35.113Z,3.80
2019-02-09T20:38:04.376Z,3.80
2019-02-09T20:40:38.192Z,3.80
2019-02-09T20:43:08.880Z,3.80
2019-02-09T20:45:37.299Z,3.80
2019-02-09T20:48:06.118Z,3.80
2019-02-09T20:50:34.536Z,3.80
2019-02-09T20:53:03.015Z,3.80
2019-02-09T20:55:31.416Z,3.90
2019-02-09T20:57:59.947Z,3.80
2019-02-09T21:00:32.152Z,3.90
2019-02-09T21:03:00.653Z,3.90
2019-02-09T21:05:36.016Z,4.00
2019-02-09T21:07:59.429Z,4.00
2019-02-09T21:10:34.263Z,4.00
2019-02-09T21:13:02.857Z,4.10
2019-02-09T21:15:31.644Z,4.10
2019-02-09T21:18:00.065Z,4.00
2019-02-09T21:20:28.480Z,3.90
2019-02-09T21:22:56.947Z,3.90
2019-02-09T21:25:30.342Z,3.90
2019-02-09T21:27:58.798Z,3.90
2019-02-09T21:30:27.869Z,3.80
2019-02-09T21:32:57.245Z,3.80
2019-02-09T21:35:25.683Z,3.80
2019-02-09T21:37:54.518Z,3.80
2019-02-09T21:40:27.865Z,3.80
2019-02-09T21:42:56.525Z,3.70
2019-02-09T21:45:25.716Z,3.80
2019-02-09T21:47:54.208Z,3.70
2019-02-09T21:50:24.884Z,3.70
2019-02-09T21:52:54.384Z,3.80
2019-02-09T21:55:23.088Z,3.80
2019-02-09T21:57:51.509Z,3.80
2019-02-09T22:00:37.562Z,3.80
2019-02-09T22:03:07.919Z,3.70
2019-02-09T22:05:36.663Z,3.70
2019-02-09T22:08:06.546Z,3.70
2019-02-09T22:10:35.537Z,3.80
2019-02-09T22:13:04.199Z,3.90
2019-02-09T22:15:38.354Z,3.90
2019-02-09T22:18:03.506Z,3.90
2019-02-09T22:20:32.031Z,3.90
2019-02-09T22:23:00.473Z,3.90
2019-02-09T22:25:30.101Z,3.90
2019-02-09T22:27:58.578Z,3.80
2019-02-09T22:30:40.031Z,3.90
2019-02-09T22:33:08.681Z,3.80
2019-02-09T22:35:37.222Z,3.80
2019-02-09T22:38:05.712Z,3.70
2019-02-09T22:40:39.484Z,3.70
2019-02-09T22:43:08.505Z,3.80
2019-02-09T22:45:37.275Z,3.70
2019-02-09T22:48:07.492Z,3.70
2019-02-09T22:50:41.539Z,3.70
2019-02-09T22:53:10.017Z,3.70
2019-02-09T22:55:38.457Z,3.70
2019-02-09T22:58:07.255Z,3.70
2019-02-09T23:01:03.102Z,3.60
2019-02-09T23:03:40.634Z,3.70
2019-02-09T23:06:12.140Z,3.70
2019-02-09T23:08:42.600Z,3.60
2019-02-09T23:11:11.036Z,3.60
2019-02-09T23:13:39.440Z,3.60
2019-02-09T23:16:07.868Z,3.60
2019-02-09T23:18:36.361Z,3.50
2019-02-09T23:21:04.772Z,3.60
2019-02-09T23:23:33.220Z,3.60
2019-02-09T23:26:02.655Z,3.60
2019-02-09T23:28:31.101Z,3.50
2019-02-09T23:30:59.524Z,3.50
2019-02-09T23:33:28.094Z,3.40
2019-02-09T23:35:56.577Z,3.30
2019-02-09T23:38:25.064Z,3.30
2019-02-09T23:40:53.549Z,3.30
2019-02-09T23:43:21.996Z,3.30
2019-02-09T23:45:50.518Z,3.40
2019-02-09T23:48:19.042Z,3.40
2019-02-09T23:50:47.537Z,3.40
2019-02-09T23:53:16.003Z,3.40
2019-02-09T23:55:44.533Z,3.40
2019-02-09T23:58:12.985Z,3.40
